sensor_id;sensor_type;location;lat;lon;timestamp;pressure;altitude;pressure_sealevel;temperature;humidity
73633;BME280;61927;50.080;14.418;2023-12-07T00:01:19;99572.13;;;2.20;84.94
73633;BME280;61927;50.080;14.418;2023-12-07T00:03:45;99575.88;;;2.10;85.48
73633;BME280;61927;50.080;14.418;2023-12-07T00:06:10;99576.66;;;2.14;86.23
73633;BME280;61927;50.080;14.418;2023-12-07T00:08:36;99587.00;;;2.18;85.75
73633;BME280;61927;50.080;14.418;2023-12-07T00:11:01;99580.66;;;2.27;86.02
73633;BME280;61927;50.080;14.418;2023-12-07T00:13:27;99584.09;;;2.29;85.24
73633;BME280;61927;50.080;14.418;2023-12-07T00:15:53;99580.25;;;2.42;84.31
73633;BME280;61927;50.080;14.418;2023-12-07T00:18:18;99578.13;;;2.56;84.07
73633;BME280;61927;50.080;14.418;2023-12-07T00:20:44;99586.16;;;2.50;83.81
73633;BME280;61927;50.080;14.418;2023-12-07T00:23:10;99578.38;;;2.47;84.70
73633;BME280;61927;50.080;14.418;2023-12-07T00:25:36;99586.41;;;2.41;84.52
73633;BME280;61927;50.080;14.418;2023-12-07T00:28:02;99590.13;;;2.33;85.07
73633;BME280;61927;50.080;14.418;2023-12-07T00:30:28;99591.56;;;2.44;84.93
73633;BME280;61927;50.080;14.418;2023-12-07T00:32:54;99594.00;;;2.50;84.97
73633;BME280;61927;50.080;14.418;2023-12-07T00:35:20;99600.84;;;2.56;84.69
73633;BME280;61927;50.080;14.418;2023-12-07T00:37:48;99593.84;;;2.56;84.38
73633;BME280;61927;50.080;14.418;2023-12-07T00:40:13;99594.53;;;2.63;84.64
73633;BME280;61927;50.080;14.418;2023-12-07T00:42:40;99595.72;;;2.51;84.61
73633;BME280;61927;50.080;14.418;2023-12-07T00:45:05;99592.56;;;2.39;85.21
73633;BME280;61927;50.080;14.418;2023-12-07T00:47:31;99590.25;;;2.28;84.96
73633;BME280;61927;50.080;14.418;2023-12-07T00:49:57;99586.06;;;2.21;85.62
73633;BME280;61927;50.080;14.418;2023-12-07T00:52:23;99594.03;;;2.16;84.75
73633;BME280;61927;50.080;14.418;2023-12-07T00:54:48;99592.19;;;2.20;84.02
73633;BME280;61927;50.080;14.418;2023-12-07T00:57:14;99589.63;;;2.18;84.41
73633;BME280;61927;50.080;14.418;2023-12-07T00:59:40;99594.19;;;2.10;84.58
73633;BME280;61927;50.080;14.418;2023-12-07T01:02:06;99597.56;;;2.15;84.31
73633;BME280;61927;50.080;14.418;2023-12-07T01:04:32;99594.69;;;2.24;84.37
73633;BME280;61927;50.080;14.418;2023-12-07T01:06:59;99594.19;;;2.44;83.14
73633;BME280;61927;50.080;14.418;2023-12-07T01:09:25;99602.97;;;2.42;83.25
73633;BME280;61927;50.080;14.418;2023-12-07T01:11:51;99607.28;;;2.44;83.55
73633;BME280;61927;50.080;14.418;2023-12-07T01:14:18;99601.88;;;2.50;83.33
73633;BME280;61927;50.080;14.418;2023-12-07T01:16:44;99609.03;;;2.44;83.11
73633;BME280;61927;50.080;14.418;2023-12-07T01:19:10;99615.88;;;2.49;83.54
73633;BME280;61927;50.080;14.418;2023-12-07T01:21:40;99612.13;;;2.58;83.28
73633;BME280;61927;50.080;14.418;2023-12-07T01:24:07;99610.22;;;2.65;83.00
73633;BME280;61927;50.080;14.418;2023-12-07T01:26:33;99605.72;;;2.70;82.72
73633;BME280;61927;50.080;14.418;2023-12-07T01:28:58;99609.97;;;2.74;82.40
73633;BME280;61927;50.080;14.418;2023-12-07T01:31:24;99610.81;;;2.74;82.40
73633;BME280;61927;50.080;14.418;2023-12-07T01:33:49;99620.28;;;2.80;82.00
73633;BME280;61927;50.080;14.418;2023-12-07T01:36:15;99615.03;;;2.80;82.13
73633;BME280;61927;50.080;14.418;2023-12-07T01:38:40;99615.00;;;2.81;81.72
73633;BME280;61927;50.080;14.418;2023-12-07T01:41:06;99621.09;;;2.82;81.98
73633;BME280;61927;50.080;14.418;2023-12-07T01:43:32;99617.25;;;2.63;82.78
73633;BME280;61927;50.080;14.418;2023-12-07T01:45:57;99624.00;;;2.71;82.63
73633;BME280;61927;50.080;14.418;2023-12-07T01:48:24;99616.22;;;2.68;82.87
73633;BME280;61927;50.080;14.418;2023-12-07T01:50:53;99620.69;;;2.65;83.07
73633;BME280;61927;50.080;14.418;2023-12-07T01:53:21;99626.19;;;2.55;83.42
73633;BME280;61927;50.080;14.418;2023-12-07T01:55:48;99623.81;;;2.46;83.54
73633;BME280;61927;50.080;14.418;2023-12-07T01:58:17;99618.94;;;2.33;84.14
73633;BME280;61927;50.080;14.418;2023-12-07T02:00:43;99626.81;;;2.31;84.71
73633;BME280;61927;50.080;14.418;2023-12-07T02:03:08;99629.44;;;2.31;84.82
73633;BME280;61927;50.080;14.418;2023-12-07T02:05:36;99630.59;;;2.19;85.53
73633;BME280;61927;50.080;14.418;2023-12-07T02:08:02;99627.16;;;2.17;85.50
73633;BME280;61927;50.080;14.418;2023-12-07T02:10:27;99628.13;;;2.13;85.40
73633;BME280;61927;50.080;14.418;2023-12-07T02:12:53;99634.31;;;2.11;85.92
73633;BME280;61927;50.080;14.418;2023-12-07T02:15:20;99633.41;;;2.12;85.77
73633;BME280;61927;50.080;14.418;2023-12-07T02:18:06;99638.38;;;2.22;85.13
73633;BME280;61927;50.080;14.418;2023-12-07T02:23:32;99635.03;;;2.17;84.87
73633;BME280;61927;50.080;14.418;2023-12-07T02:26:03;99633.41;;;2.12;84.59
73633;BME280;61927;50.080;14.418;2023-12-07T02:28:28;99642.06;;;2.15;85.29
73633;BME280;61927;50.080;14.418;2023-12-07T02:30:54;99639.00;;;2.32;84.23
73633;BME280;61927;50.080;14.418;2023-12-07T02:33:20;99641.34;;;2.43;84.37
73633;BME280;61927;50.080;14.418;2023-12-07T02:35:46;99644.75;;;2.46;83.09
73633;BME280;61927;50.080;14.418;2023-12-07T02:38:12;99654.31;;;2.47;83.41
73633;BME280;61927;50.080;14.418;2023-12-07T02:40:38;99655.16;;;2.49;82.96
73633;BME280;61927;50.080;14.418;2023-12-07T02:43:05;99649.38;;;2.37;83.21
73633;BME280;61927;50.080;14.418;2023-12-07T02:45:32;99647.81;;;2.30;83.12
73633;BME280;61927;50.080;14.418;2023-12-07T02:47:58;99651.28;;;2.30;83.88
73633;BME280;61927;50.080;14.418;2023-12-07T02:50:24;99654.78;;;2.29;83.73
73633;BME280;61927;50.080;14.418;2023-12-07T02:52:49;99655.06;;;2.18;83.17
73633;BME280;61927;50.080;14.418;2023-12-07T02:55:15;99652.13;;;2.31;83.26
73633;BME280;61927;50.080;14.418;2023-12-07T02:57:41;99666.41;;;2.19;83.07
73633;BME280;61927;50.080;14.418;2023-12-07T03:00:07;99659.69;;;2.43;82.52
73633;BME280;61927;50.080;14.418;2023-12-07T03:02:38;99658.75;;;2.45;81.78
73633;BME280;61927;50.080;14.418;2023-12-07T03:05:05;99660.59;;;2.42;81.76
73633;BME280;61927;50.080;14.418;2023-12-07T03:07:31;99663.31;;;2.37;81.80
73633;BME280;61927;50.080;14.418;2023-12-07T03:09:57;99664.03;;;2.44;81.29
73633;BME280;61927;50.080;14.418;2023-12-07T03:12:22;99668.59;;;2.36;81.77
73633;BME280;61927;50.080;14.418;2023-12-07T03:14:51;99683.78;;;2.21;82.58
73633;BME280;61927;50.080;14.418;2023-12-07T03:17:17;99683.63;;;2.28;82.34
73633;BME280;61927;50.080;14.418;2023-12-07T03:19:42;99682.81;;;2.25;81.87
73633;BME280;61927;50.080;14.418;2023-12-07T03:22:08;99675.41;;;2.43;81.84
73633;BME280;61927;50.080;14.418;2023-12-07T03:24:35;99679.97;;;2.35;81.78
73633;BME280;61927;50.080;14.418;2023-12-07T03:27:01;99683.38;;;2.38;82.43
73633;BME280;61927;50.080;14.418;2023-12-07T03:29:27;99690.91;;;2.50;82.28
73633;BME280;61927;50.080;14.418;2023-12-07T03:31:52;99690.03;;;2.51;81.62
73633;BME280;61927;50.080;14.418;2023-12-07T03:34:18;99692.47;;;2.57;81.50
73633;BME280;61927;50.080;14.418;2023-12-07T03:36:47;99692.16;;;2.70;80.91
73633;BME280;61927;50.080;14.418;2023-12-07T03:39:14;99695.84;;;2.63;80.96
73633;BME280;61927;50.080;14.418;2023-12-07T03:41:40;99689.25;;;2.48;81.74
73633;BME280;61927;50.080;14.418;2023-12-07T03:44:07;99697.06;;;2.49;81.67
73633;BME280;61927;50.080;14.418;2023-12-07T03:46:32;99695.34;;;2.48;81.96
73633;BME280;61927;50.080;14.418;2023-12-07T03:48:58;99703.56;;;2.33;82.59
73633;BME280;61927;50.080;14.418;2023-12-07T03:51:26;99707.16;;;2.29;82.78
73633;BME280;61927;50.080;14.418;2023-12-07T03:53:52;99704.69;;;2.23;83.69
73633;BME280;61927;50.080;14.418;2023-12-07T03:56:25;99705.25;;;2.36;83.45
73633;BME280;61927;50.080;14.418;2023-12-07T03:58:51;99704.16;;;2.44;83.40
73633;BME280;61927;50.080;14.418;2023-12-07T04:01:17;99707.47;;;2.52;82.40
73633;BME280;61927;50.080;14.418;2023-12-07T04:03:43;99717.19;;;2.47;82.15
73633;BME280;61927;50.080;14.418;2023-12-07T04:06:08;99713.03;;;2.39;83.17
73633;BME280;61927;50.080;14.418;2023-12-07T04:08:34;99704.06;;;2.49;82.15
73633;BME280;61927;50.080;14.418;2023-12-07T04:11:00;99722.75;;;2.34;82.76
73633;BME280;61927;50.080;14.418;2023-12-07T04:13:25;99715.50;;;2.45;82.65
73633;BME280;61927;50.080;14.418;2023-12-07T04:15:51;99725.81;;;2.51;82.37
73633;BME280;61927;50.080;14.418;2023-12-07T04:18:17;99734.47;;;2.54;82.05
73633;BME280;61927;50.080;14.418;2023-12-07T04:20:43;99730.13;;;2.53;82.64
73633;BME280;61927;50.080;14.418;2023-12-07T04:23:08;99732.75;;;2.53;82.44
73633;BME280;61927;50.080;14.418;2023-12-07T04:25:34;99730.72;;;2.65;81.64
73633;BME280;61927;50.080;14.418;2023-12-07T04:27:59;99736.19;;;2.55;82.05
73633;BME280;61927;50.080;14.418;2023-12-07T04:30:25;99729.50;;;2.44;82.14
73633;BME280;61927;50.080;14.418;2023-12-07T04:32:51;99738.81;;;2.55;82.23
73633;BME280;61927;50.080;14.418;2023-12-07T04:35:16;99742.34;;;2.54;81.93
73633;BME280;61927;50.080;14.418;2023-12-07T04:37:42;99742.09;;;2.64;81.85
73633;BME280;61927;50.080;14.418;2023-12-07T04:40:08;99742.09;;;2.64;81.35
73633;BME280;61927;50.080;14.418;2023-12-07T04:42:34;99745.63;;;2.63;81.89
73633;BME280;61927;50.080;14.418;2023-12-07T04:44:59;99750.75;;;2.67;81.56
73633;BME280;61927;50.080;14.418;2023-12-07T04:47:25;99746.75;;;2.52;81.83
73633;BME280;61927;50.080;14.418;2023-12-07T04:49:50;99753.84;;;2.47;82.41
73633;BME280;61927;50.080;14.418;2023-12-07T04:52:16;99751.97;;;2.52;82.32
73633;BME280;61927;50.080;14.418;2023-12-07T04:54:42;99746.06;;;2.44;82.83
73633;BME280;61927;50.080;14.418;2023-12-07T04:57:07;99747.69;;;2.50;82.70
73633;BME280;61927;50.080;14.418;2023-12-07T04:59:34;99749.56;;;2.45;82.85
73633;BME280;61927;50.080;14.418;2023-12-07T05:02:00;99752.25;;;2.42;83.34
73633;BME280;61927;50.080;14.418;2023-12-07T05:04:26;99756.84;;;2.32;83.29
73633;BME280;61927;50.080;14.418;2023-12-07T05:06:51;99756.81;;;2.34;83.55
73633;BME280;61927;50.080;14.418;2023-12-07T05:09:17;99757.66;;;2.34;83.04
73633;BME280;61927;50.080;14.418;2023-12-07T05:11:43;99759.25;;;2.41;83.75
73633;BME280;61927;50.080;14.418;2023-12-07T05:14:10;99765.13;;;2.51;82.83
73633;BME280;61927;50.080;14.418;2023-12-07T05:16:36;99767.78;;;2.49;83.24
73633;BME280;61927;50.080;14.418;2023-12-07T05:19:01;99765.09;;;2.52;82.50
73633;BME280;61927;50.080;14.418;2023-12-07T05:21:28;99771.50;;;2.39;83.55
73633;BME280;61927;50.080;14.418;2023-12-07T05:23:53;99768.72;;;2.47;83.25
73633;BME280;61927;50.080;14.418;2023-12-07T05:26:19;99764.25;;;2.50;82.80
73633;BME280;61927;50.080;14.418;2023-12-07T05:28:46;99776.53;;;2.48;82.64
73633;BME280;61927;50.080;14.418;2023-12-07T05:31:18;99769.00;;;2.35;83.83
73633;BME280;61927;50.080;14.418;2023-12-07T05:33:44;99776.81;;;2.36;83.09
73633;BME280;61927;50.080;14.418;2023-12-07T05:36:10;99782.81;;;2.41;83.47
73633;BME280;61927;50.080;14.418;2023-12-07T05:38:35;99776.13;;;2.28;83.36
73633;BME280;61927;50.080;14.418;2023-12-07T05:41:01;99782.03;;;2.38;83.83
73633;BME280;61927;50.080;14.418;2023-12-07T05:43:27;99781.91;;;2.42;83.94
73633;BME280;61927;50.080;14.418;2023-12-07T05:45:52;99786.09;;;2.49;83.35
73633;BME280;61927;50.080;14.418;2023-12-07T05:48:18;99783.56;;;2.46;83.60
73633;BME280;61927;50.080;14.418;2023-12-07T05:50:43;99780.00;;;2.49;83.06
73633;BME280;61927;50.080;14.418;2023-12-07T05:53:09;99783.00;;;2.34;83.47
73633;BME280;61927;50.080;14.418;2023-12-07T05:55:34;99793.47;;;2.34;84.00
73633;BME280;61927;50.080;14.418;2023-12-07T05:58:00;99795.69;;;2.50;82.77
73633;BME280;61927;50.080;14.418;2023-12-07T06:00:26;99783.31;;;2.57;83.62
73633;BME280;61927;50.080;14.418;2023-12-07T06:02:51;99792.97;;;2.55;82.07
73633;BME280;61927;50.080;14.418;2023-12-07T06:05:17;99794.06;;;2.45;82.80
73633;BME280;61927;50.080;14.418;2023-12-07T06:07:43;99798.44;;;2.44;83.48
73633;BME280;61927;50.080;14.418;2023-12-07T06:10:09;99800.91;;;2.52;82.77
73633;BME280;61927;50.080;14.418;2023-12-07T06:12:34;99803.44;;;2.55;81.86
73633;BME280;61927;50.080;14.418;2023-12-07T06:15:00;99805.19;;;2.54;82.71
73633;BME280;61927;50.080;14.418;2023-12-07T06:17:26;99805.28;;;2.51;82.48
73633;BME280;61927;50.080;14.418;2023-12-07T06:19:51;99798.28;;;2.52;82.50
73633;BME280;61927;50.080;14.418;2023-12-07T06:22:17;99799.84;;;2.59;81.94
73633;BME280;61927;50.080;14.418;2023-12-07T06:24:42;99804.09;;;2.65;82.01
73633;BME280;61927;50.080;14.418;2023-12-07T06:27:08;99800.63;;;2.63;82.20
73633;BME280;61927;50.080;14.418;2023-12-07T06:29:35;99803.09;;;2.69;82.87
73633;BME280;61927;50.080;14.418;2023-12-07T06:32:01;99808.44;;;2.66;82.92
73633;BME280;61927;50.080;14.418;2023-12-07T06:34:26;99811.34;;;2.89;81.41
73633;BME280;61927;50.080;14.418;2023-12-07T06:36:53;99813.28;;;2.81;82.08
73633;BME280;61927;50.080;14.418;2023-12-07T06:39:19;99817.84;;;2.73;82.55
73633;BME280;61927;50.080;14.418;2023-12-07T06:41:44;99820.44;;;2.74;82.31
73633;BME280;61927;50.080;14.418;2023-12-07T06:44:10;99822.25;;;2.72;82.67
73633;BME280;61927;50.080;14.418;2023-12-07T06:46:35;99834.41;;;2.75;81.99
73633;BME280;61927;50.080;14.418;2023-12-07T06:49:01;99822.28;;;2.71;82.35
73633;BME280;61927;50.080;14.418;2023-12-07T06:51:27;99824.06;;;2.69;82.92
73633;BME280;61927;50.080;14.418;2023-12-07T06:53:52;99826.66;;;2.70;82.99
73633;BME280;61927;50.080;14.418;2023-12-07T06:56:18;99832.72;;;2.72;82.51
73633;BME280;61927;50.080;14.418;2023-12-07T06:58:44;99840.34;;;2.81;81.96
73633;BME280;61927;50.080;14.418;2023-12-07T07:01:09;99834.97;;;2.87;82.43
73633;BME280;61927;50.080;14.418;2023-12-07T07:03:35;99832.97;;;2.97;82.76
73633;BME280;61927;50.080;14.418;2023-12-07T07:06:01;99831.69;;;2.79;82.32
73633;BME280;61927;50.080;14.418;2023-12-07T07:08:26;99834.91;;;2.90;82.04
73633;BME280;61927;50.080;14.418;2023-12-07T07:10:52;99826.91;;;2.95;81.86
73633;BME280;61927;50.080;14.418;2023-12-07T07:13:18;99832.94;;;2.99;81.81
73633;BME280;61927;50.080;14.418;2023-12-07T07:15:45;99837.28;;;3.00;81.00
73633;BME280;61927;50.080;14.418;2023-12-07T07:18:11;99838.19;;;2.99;80.93
73633;BME280;61927;50.080;14.418;2023-12-07T07:20:37;99837.06;;;3.09;81.24
73633;BME280;61927;50.080;14.418;2023-12-07T07:23:03;99841.25;;;3.16;80.60
73633;BME280;61927;50.080;14.418;2023-12-07T07:25:28;99848.22;;;3.17;80.30
73633;BME280;61927;50.080;14.418;2023-12-07T07:27:54;99842.41;;;3.04;80.41
73633;BME280;61927;50.080;14.418;2023-12-07T07:30:20;99850.91;;;3.14;80.73
73633;BME280;61927;50.080;14.418;2023-12-07T07:32:46;99850.84;;;3.17;80.81
73633;BME280;61927;50.080;14.418;2023-12-07T07:35:12;99849.22;;;3.11;80.66
73633;BME280;61927;50.080;14.418;2023-12-07T07:37:38;99851.69;;;3.17;81.19
73633;BME280;61927;50.080;14.418;2023-12-07T07:40:05;99851.03;;;3.09;80.46
73633;BME280;61927;50.080;14.418;2023-12-07T07:42:35;99848.22;;;3.17;80.95
73633;BME280;61927;50.080;14.418;2023-12-07T07:45:00;99847.03;;;3.29;80.21
73633;BME280;61927;50.080;14.418;2023-12-07T07:47:26;99859.25;;;3.30;80.17
73633;BME280;61927;50.080;14.418;2023-12-07T07:49:51;99850.44;;;3.32;79.69
73633;BME280;61927;50.080;14.418;2023-12-07T07:52:17;99854.28;;;3.19;80.23
73633;BME280;61927;50.080;14.418;2023-12-07T07:54:43;99857.53;;;3.29;80.71
73633;BME280;61927;50.080;14.418;2023-12-07T07:57:09;99858.47;;;3.26;80.98
73633;BME280;61927;50.080;14.418;2023-12-07T07:59:34;99859.09;;;3.36;80.77
73633;BME280;61927;50.080;14.418;2023-12-07T08:02:00;99857.22;;;3.41;80.53
73633;BME280;61927;50.080;14.418;2023-12-07T08:04:25;99870.47;;;3.35;80.39
73633;BME280;61927;50.080;14.418;2023-12-07T08:06:51;99860.97;;;3.31;80.83
73633;BME280;61927;50.080;14.418;2023-12-07T08:09:16;99864.53;;;3.28;81.43
73633;BME280;61927;50.080;14.418;2023-12-07T08:11:42;99861.13;;;3.24;80.93
73633;BME280;61927;50.080;14.418;2023-12-07T08:14:08;99863.56;;;3.32;80.88
73633;BME280;61927;50.080;14.418;2023-12-07T08:16:34;99870.72;;;3.26;81.01
73633;BME280;61927;50.080;14.418;2023-12-07T08:19:00;99873.34;;;3.26;80.94
73633;BME280;61927;50.080;14.418;2023-12-07T08:21:26;99870.78;;;3.22;81.62
73633;BME280;61927;50.080;14.418;2023-12-07T08:23:51;99876.72;;;3.31;81.01
73633;BME280;61927;50.080;14.418;2023-12-07T08:26:18;99867.94;;;3.32;80.98
73633;BME280;61927;50.080;14.418;2023-12-07T08:28:43;99875.56;;;3.41;80.70
73633;BME280;61927;50.080;14.418;2023-12-07T08:31:10;99866.69;;;3.46;80.00
73633;BME280;61927;50.080;14.418;2023-12-07T08:33:36;99864.78;;;3.51;79.68
73633;BME280;61927;50.080;14.418;2023-12-07T08:36:03;99870.94;;;3.50;79.43
73633;BME280;61927;50.080;14.418;2023-12-07T08:38:29;99868.16;;;3.56;80.08
73633;BME280;61927;50.080;14.418;2023-12-07T08:40:55;99870.00;;;3.53;79.02
73633;BME280;61927;50.080;14.418;2023-12-07T08:43:21;99876.03;;;3.22;80.40
73633;BME280;61927;50.080;14.418;2023-12-07T08:45:51;99875.22;;;3.20;80.26
73633;BME280;61927;50.080;14.418;2023-12-07T08:48:18;99877.09;;;3.15;81.11
73633;BME280;61927;50.080;14.418;2023-12-07T08:50:44;99882.16;;;3.23;80.42
73633;BME280;61927;50.080;14.418;2023-12-07T08:53:09;99888.66;;;3.07;80.87
73633;BME280;61927;50.080;14.418;2023-12-07T08:55:35;99884.31;;;3.06;81.24
73633;BME280;61927;50.080;14.418;2023-12-07T08:58:01;99894.06;;;3.01;81.17
73633;BME280;61927;50.080;14.418;2023-12-07T09:00:31;99887.78;;;3.08;81.43
73633;BME280;61927;50.080;14.418;2023-12-07T09:02:57;99892.88;;;3.14;81.86
73633;BME280;61927;50.080;14.418;2023-12-07T09:05:23;99894.69;;;3.10;81.27
73633;BME280;61927;50.080;14.418;2023-12-07T09:07:48;99903.97;;;2.88;82.31
73633;BME280;61927;50.080;14.418;2023-12-07T09:10:14;99896.66;;;3.02;81.99
73633;BME280;61927;50.080;14.418;2023-12-07T09:12:40;99893.41;;;3.27;82.05
73633;BME280;61927;50.080;14.418;2023-12-07T09:15:06;99906.31;;;3.36;81.11
73633;BME280;61927;50.080;14.418;2023-12-07T09:17:33;99902.16;;;3.27;81.06
73633;BME280;61927;50.080;14.418;2023-12-07T09:19:59;99903.88;;;3.28;82.07
73633;BME280;61927;50.080;14.418;2023-12-07T09:22:25;99902.66;;;3.41;81.43
73633;BME280;61927;50.080;14.418;2023-12-07T09:24:51;99898.81;;;3.20;82.00
73633;BME280;61927;50.080;14.418;2023-12-07T09:27:16;99899.41;;;3.32;81.38
73633;BME280;61927;50.080;14.418;2023-12-07T09:29:42;99901.56;;;3.16;82.15
73633;BME280;61927;50.080;14.418;2023-12-07T09:32:07;99898.44;;;3.36;81.41
73633;BME280;61927;50.080;14.418;2023-12-07T09:34:33;99909.41;;;3.16;81.98
73633;BME280;61927;50.080;14.418;2023-12-07T09:37:06;99901.00;;;3.03;82.52
73633;BME280;61927;50.080;14.418;2023-12-07T09:39:32;99900.66;;;3.17;82.37
73633;BME280;61927;50.080;14.418;2023-12-07T09:41:58;99906.03;;;3.11;82.20
73633;BME280;61927;50.080;14.418;2023-12-07T09:44:24;99900.88;;;3.08;82.56
73633;BME280;61927;50.080;14.418;2023-12-07T09:46:50;99899.16;;;3.07;82.07
73633;BME280;61927;50.080;14.418;2023-12-07T09:49:16;99898.66;;;3.27;81.77
73633;BME280;61927;50.080;14.418;2023-12-07T09:51:43;99900.94;;;3.40;80.79
73633;BME280;61927;50.080;14.418;2023-12-07T09:54:09;99909.25;;;3.58;80.89
73633;BME280;61927;50.080;14.418;2023-12-07T09:56:36;99906.56;;;3.59;79.87
73633;BME280;61927;50.080;14.418;2023-12-07T09:59:02;99902.09;;;3.63;80.88
73633;BME280;61927;50.080;14.418;2023-12-07T10:01:30;99904.19;;;3.50;81.67
73633;BME280;61927;50.080;14.418;2023-12-07T10:04:23;99896.66;;;3.70;81.65
73633;BME280;61927;50.080;14.418;2023-12-07T10:06:56;99886.84;;;3.77;81.15
73633;BME280;61927;50.080;14.418;2023-12-07T10:09:22;99892.97;;;3.77;80.78
73633;BME280;61927;50.080;14.418;2023-12-07T10:11:47;99886.13;;;3.72;81.08
73633;BME280;61927;50.080;14.418;2023-12-07T10:14:13;99891.34;;;3.72;80.75
73633;BME280;61927;50.080;14.418;2023-12-07T10:16:52;99881.13;;;3.63;80.46
73633;BME280;61927;50.080;14.418;2023-12-07T10:19:19;99886.97;;;3.72;80.75
73633;BME280;61927;50.080;14.418;2023-12-07T10:21:50;99885.13;;;3.76;81.21
73633;BME280;61927;50.080;14.418;2023-12-07T10:24:18;99882.88;;;3.62;81.12
73633;BME280;61927;50.080;14.418;2023-12-07T10:26:46;99884.88;;;3.52;81.80
73633;BME280;61927;50.080;14.418;2023-12-07T10:29:11;99881.81;;;3.69;81.40
73633;BME280;61927;50.080;14.418;2023-12-07T10:31:38;99889.44;;;3.78;81.07
73633;BME280;61927;50.080;14.418;2023-12-07T10:34:04;99887.59;;;3.82;80.44
73633;BME280;61927;50.080;14.418;2023-12-07T10:36:31;99887.31;;;3.91;80.28
73633;BME280;61927;50.080;14.418;2023-12-07T10:38:58;99882.63;;;4.02;79.33
73633;BME280;61927;50.080;14.418;2023-12-07T10:41:24;99881.91;;;3.97;79.40
73633;BME280;61927;50.080;14.418;2023-12-07T10:43:57;99884.63;;;3.94;79.31
73633;BME280;61927;50.080;14.418;2023-12-07T10:46:24;99883.59;;;4.00;79.23
73633;BME280;61927;50.080;14.418;2023-12-07T10:48:59;99876.53;;;4.02;79.21
73633;BME280;61927;50.080;14.418;2023-12-07T10:51:41;99878.13;;;3.76;79.21
73633;BME280;61927;50.080;14.418;2023-12-07T10:54:11;99873.47;;;3.86;79.79
73633;BME280;61927;50.080;14.418;2023-12-07T10:56:43;99876.97;;;3.86;79.71
73633;BME280;61927;50.080;14.418;2023-12-07T10:59:09;99876.00;;;3.89;80.02
73633;BME280;61927;50.080;14.418;2023-12-07T11:01:40;99876.22;;;3.81;78.91
73633;BME280;61927;50.080;14.418;2023-12-07T11:04:06;99881.00;;;3.98;78.22
73633;BME280;61927;50.080;14.418;2023-12-07T11:06:35;99875.09;;;3.90;79.21
73633;BME280;61927;50.080;14.418;2023-12-07T11:09:06;99882.59;;;3.73;79.69
73633;BME280;61927;50.080;14.418;2023-12-07T11:14:02;99877.56;;;3.96;79.06
73633;BME280;61927;50.080;14.418;2023-12-07T11:16:34;99875.41;;;4.10;77.47
73633;BME280;61927;50.080;14.418;2023-12-07T11:19:02;99869.38;;;4.07;76.30
73633;BME280;61927;50.080;14.418;2023-12-07T11:21:28;99871.38;;;3.99;76.15
73633;BME280;61927;50.080;14.418;2023-12-07T11:23:54;99864.78;;;3.84;75.98
73633;BME280;61927;50.080;14.418;2023-12-07T11:26:22;99871.97;;;3.77;76.05
73633;BME280;61927;50.080;14.418;2023-12-07T11:28:48;99874.47;;;3.82;76.03
73633;BME280;61927;50.080;14.418;2023-12-07T11:31:14;99872.47;;;3.90;75.62
73633;BME280;61927;50.080;14.418;2023-12-07T11:33:41;99880.88;;;4.03;74.96
73633;BME280;61927;50.080;14.418;2023-12-07T11:36:08;99877.16;;;3.79;75.46
73633;BME280;61927;50.080;14.418;2023-12-07T11:38:38;99875.22;;;3.85;75.78
73633;BME280;61927;50.080;14.418;2023-12-07T11:41:04;99868.47;;;3.77;75.37
73633;BME280;61927;50.080;14.418;2023-12-07T11:45:59;99873.03;;;3.70;75.50
73633;BME280;61927;50.080;14.418;2023-12-07T11:48:25;99868.25;;;3.84;75.31
73633;BME280;61927;50.080;14.418;2023-12-07T11:51:00;99867.34;;;3.85;75.28
73633;BME280;61927;50.080;14.418;2023-12-07T11:53:31;99877.69;;;3.92;74.43
73633;BME280;61927;50.080;14.418;2023-12-07T11:56:04;99870.28;;;3.75;74.40
73633;BME280;61927;50.080;14.418;2023-12-07T11:58:31;99868.84;;;3.63;73.82
73633;BME280;61927;50.080;14.418;2023-12-07T12:00:58;99879.88;;;3.43;74.65
73633;BME280;61927;50.080;14.418;2023-12-07T12:03:25;99868.97;;;3.59;73.90
73633;BME280;61927;50.080;14.418;2023-12-07T12:05:52;99868.03;;;3.61;75.01
73633;BME280;61927;50.080;14.418;2023-12-07T12:08:19;99867.00;;;3.67;74.85
73633;BME280;61927;50.080;14.418;2023-12-07T12:10:49;99865.31;;;3.64;74.37
73633;BME280;61927;50.080;14.418;2023-12-07T12:13:16;99863.59;;;3.63;74.54
73633;BME280;61927;50.080;14.418;2023-12-07T12:15:42;99861.53;;;3.74;74.36
73633;BME280;61927;50.080;14.418;2023-12-07T12:18:09;99855.03;;;3.56;72.98
73633;BME280;61927;50.080;14.418;2023-12-07T12:20:36;99855.31;;;3.78;73.46
73633;BME280;61927;50.080;14.418;2023-12-07T12:23:02;99855.91;;;3.88;73.10
73633;BME280;61927;50.080;14.418;2023-12-07T12:25:29;99856.59;;;3.95;72.98
73633;BME280;61927;50.080;14.418;2023-12-07T12:28:02;99853.81;;;4.01;71.84
73633;BME280;61927;50.080;14.418;2023-12-07T12:30:28;99854.16;;;3.88;72.26
73633;BME280;61927;50.080;14.418;2023-12-07T12:32:55;99854.53;;;4.06;72.21
73633;BME280;61927;50.080;14.418;2023-12-07T12:35:22;99856.88;;;4.15;70.67
73633;BME280;61927;50.080;14.418;2023-12-07T12:37:49;99857.06;;;3.78;71.63
73633;BME280;61927;50.080;14.418;2023-12-07T12:40:19;99853.16;;;3.62;71.72
73633;BME280;61927;50.080;14.418;2023-12-07T12:42:47;99858.78;;;3.79;72.34
73633;BME280;61927;50.080;14.418;2023-12-07T12:45:17;99859.34;;;3.59;72.55
73633;BME280;61927;50.080;14.418;2023-12-07T12:47:45;99847.81;;;3.65;72.42
73633;BME280;61927;50.080;14.418;2023-12-07T12:50:13;99855.00;;;3.58;71.68
73633;BME280;61927;50.080;14.418;2023-12-07T12:52:58;99852.28;;;3.61;71.65
73633;BME280;61927;50.080;14.418;2023-12-07T12:55:26;99859.13;;;3.67;70.77
73633;BME280;61927;50.080;14.418;2023-12-07T12:57:52;99861.47;;;3.77;71.55
73633;BME280;61927;50.080;14.418;2023-12-07T13:00:18;99856.97;;;3.50;71.63
73633;BME280;61927;50.080;14.418;2023-12-07T13:02:45;99855.69;;;3.65;72.28
73633;BME280;61927;50.080;14.418;2023-12-07T13:05:11;99852.56;;;3.50;71.34